Time;durP1;ratioP1;P1;durP2;ratioP2;P2;SDS_P1;SDS_P2;PMS_P1;PMS_P2;Temp;Humidity;BMP_temperature;BMP_pressure;BME280_temperature;BME280_humidity;BME280_pressure;Samples;Min_cycle;Max_cycle;Signal;HPM_P1;HPM_P2
2022/04/17 00:01:02;;;;;;;7.78;4.28;;;;;;;5.97;100.00;103048.22;2614535;36;20030;-51
2022/04/17 00:03:30;;;;;;;7.60;4.80;;;;;;;6.08;100.00;103050.56;2615467;36;20157;-51
2022/04/17 00:06:01;;;;;;;7.28;4.78;;;;;;;6.13;100.00;103047.72;2615344;36;20178;-54
2022/04/17 00:08:29;;;;;;;6.63;4.80;;;;;;;6.08;100.00;103055.00;2614124;36;20133;-50
2022/04/17 00:10:58;;;;;;;8.95;4.50;;;;;;;6.04;100.00;103059.59;2614987;36;20030;-52
2022/04/17 00:13:26;;;;;;;5.75;4.20;;;;;;;6.11;100.00;103065.59;2614681;36;20058;-53
2022/04/17 00:15:54;;;;;;;6.72;4.97;;;;;;;6.01;100.00;103050.81;2615047;31;20182;-49
2022/04/17 00:18:22;;;;;;;8.35;4.85;;;;;;;6.06;100.00;103060.41;2614943;36;20034;-51
2022/04/17 00:20:51;;;;;;;7.13;4.63;;;;;;;6.06;100.00;103057.75;2615024;36;20034;-54
2022/04/17 00:23:22;;;;;;;10.20;5.15;;;;;;;6.02;100.00;103056.13;2613268;36;20174;-49
2022/04/17 00:25:50;;;;;;;7.43;4.85;;;;;;;5.94;100.00;103048.31;2615171;36;20042;-51
2022/04/17 00:28:18;;;;;;;5.82;4.40;;;;;;;5.86;100.00;103055.72;2614780;36;20172;-55
2022/04/17 00:30:46;;;;;;;7.35;4.70;;;;;;;5.89;100.00;103044.94;2614663;36;20126;-53
2022/04/17 00:33:15;;;;;;;5.90;4.70;;;;;;;5.80;100.00;103053.28;2614680;36;20034;-51
2022/04/17 00:35:44;;;;;;;6.70;4.82;;;;;;;5.72;100.00;103050.81;2614327;36;20129;-52
2022/04/17 00:38:13;;;;;;;8.93;5.15;;;;;;;5.72;100.00;103045.47;2613912;36;20030;-50
2022/04/17 00:40:44;;;;;;;7.22;4.93;;;;;;;5.73;100.00;103038.38;2614014;36;20038;-50
2022/04/17 00:43:20;;;;;;;7.30;5.13;;;;;;;5.68;100.00;103046.50;2614454;31;20086;-50
2022/04/17 00:45:49;;;;;;;6.40;5.07;;;;;;;5.78;100.00;103044.41;2615585;36;20038;-52
2022/04/17 00:48:17;;;;;;;8.18;4.75;;;;;;;5.78;100.00;103041.75;2615316;36;20605;-49
2022/04/17 00:50:45;;;;;;;7.30;4.70;;;;;;;5.91;100.00;103044.88;2615072;36;20638;-50
2022/04/17 00:53:14;;;;;;;7.38;4.45;;;;;;;5.87;100.00;103043.22;2615158;36;20122;-51
2022/04/17 00:55:45;;;;;;;5.78;4.32;;;;;;;5.84;100.00;103041.53;2615608;36;20027;-50
2022/04/17 00:58:14;;;;;;;8.13;4.50;;;;;;;5.83;100.00;103034.47;2614935;32;20130;-50
2022/04/17 01:00:44;;;;;;;7.53;5.10;;;;;;;5.81;100.00;103025.59;2615741;36;20431;-52
2022/04/17 01:03:13;;;;;;;7.63;5.22;;;;;;;5.68;100.00;103034.94;2614936;36;20318;-48
2022/04/17 01:05:42;;;;;;;7.57;4.70;;;;;;;5.67;100.00;103030.53;2615482;36;20069;-54
2022/04/17 01:08:12;;;;;;;5.78;4.32;;;;;;;5.76;100.00;103022.22;2615471;31;20502;-53
2022/04/17 01:10:41;;;;;;;5.97;4.78;;;;;;;5.81;100.00;103028.28;2615305;31;20026;-54
2022/04/17 01:13:12;;;;;;;8.40;5.13;;;;;;;5.85;100.00;103024.56;2614642;36;20030;-52
2022/04/17 01:15:40;;;;;;;7.30;4.82;;;;;;;5.84;100.00;103022.81;2614467;36;20300;-52
2022/04/17 01:18:10;;;;;;;7.22;4.78;;;;;;;5.73;100.00;103025.00;2614058;36;20037;-56
2022/04/17 01:20:40;;;;;;;8.13;4.80;;;;;;;5.71;100.00;103024.16;2614608;36;20035;-50
2022/04/17 01:28:33;;;;;;;6.60;5.07;;;;;;;5.65;100.00;103030.56;2614570;36;20547;-51
2022/04/17 01:31:01;;;;;;;5.80;4.72;;;;;;;5.52;100.00;103024.78;2614332;36;20086;-54
2022/04/17 01:33:32;;;;;;;5.97;4.78;;;;;;;5.45;100.00;103023.22;2614732;36;20190;-49
2022/04/17 01:36:00;;;;;;;7.05;4.90;;;;;;;5.42;100.00;103018.00;2614524;31;20636;-54
2022/04/17 01:38:31;;;;;;;7.88;4.55;;;;;;;5.39;100.00;103026.09;2614495;36;20054;-53
2022/04/17 01:40:59;;;;;;;7.15;4.78;;;;;;;5.33;100.00;103023.59;2614343;36;20666;-49
2022/04/17 01:43:27;;;;;;;8.00;4.75;;;;;;;5.22;100.00;103022.16;2615123;36;20423;-50
2022/04/17 01:45:55;;;;;;;6.32;4.75;;;;;;;5.15;100.00;103014.38;2613961;36;20034;-50
2022/04/17 01:48:23;;;;;;;6.40;4.90;;;;;;;5.07;100.00;103011.97;2615325;31;20132;-49
2022/04/17 01:50:52;;;;;;;6.57;4.85;;;;;;;5.03;100.00;103015.63;2614957;36;20031;-52
2022/04/17 01:53:20;;;;;;;7.53;5.05;;;;;;;5.09;100.00;103012.78;2615716;31;20034;-50
2022/04/17 01:55:51;;;;;;;7.95;4.88;;;;;;;5.05;100.00;103005.78;2616323;36;20447;-50
2022/04/17 01:58:19;;;;;;;7.18;5.03;;;;;;;4.96;100.00;102998.97;2615788;36;20547;-52
2022/04/17 02:00:48;;;;;;;6.43;5.05;;;;;;;4.83;100.00;103009.13;2615628;36;20185;-52
2022/04/17 02:03:16;;;;;;;8.23;4.68;;;;;;;4.83;100.00;103010.91;2615399;36;20027;-54
2022/04/17 02:05:44;;;;;;;9.30;5.63;;;;;;;4.74;100.00;102998.69;2615414;36;20109;-50
2022/04/17 02:08:13;;;;;;;6.90;5.07;;;;;;;4.66;100.00;102998.06;2615221;36;20584;-50
2022/04/17 02:10:42;;;;;;;7.20;5.07;;;;;;;4.62;100.00;102999.06;2615387;36;20060;-55
2022/04/17 02:13:13;;;;;;;8.88;6.00;;;;;;;4.55;100.00;103004.59;2616073;31;20419;-51
2022/04/17 02:15:41;;;;;;;9.40;5.55;;;;;;;4.55;100.00;103001.06;2614999;36;20181;-54
2022/04/17 02:18:09;;;;;;;7.93;5.53;;;;;;;4.51;100.00;103010.06;2614320;36;20134;-49
2022/04/17 02:20:37;;;;;;;10.07;5.75;;;;;;;4.41;100.00;103005.91;2613781;36;20375;-50
2022/04/17 02:23:05;;;;;;;6.95;5.00;;;;;;;4.42;100.00;103002.28;2614537;36;20130;-50
2022/04/17 02:25:34;;;;;;;10.40;5.78;;;;;;;4.32;100.00;103007.03;2615644;36;20057;-51
2022/04/17 02:28:02;;;;;;;7.40;5.20;;;;;;;4.26;100.00;103001.88;2615081;36;20031;-48
2022/04/17 02:30:33;;;;;;;8.27;5.75;;;;;;;4.18;100.00;103004.72;2616095;31;20134;-54
2022/04/17 02:33:01;;;;;;;9.50;5.80;;;;;;;4.15;100.00;103004.81;2615554;36;20121;-49
2022/04/17 02:35:29;;;;;;;7.85;5.25;;;;;;;4.13;100.00;103002.19;2615407;36;20053;-53
2022/04/17 02:37:57;;;;;;;9.35;5.95;;;;;;;4.14;100.00;103008.41;2615148;36;20139;-50
2022/04/17 02:40:26;;;;;;;7.43;5.05;;;;;;;4.13;100.00;102999.53;2615371;36;20718;-50
2022/04/17 02:42:54;;;;;;;7.50;5.40;;;;;;;4.07;100.00;102996.16;2615455;36;20035;-52
2022/04/17 02:45:23;;;;;;;10.30;5.78;;;;;;;4.02;100.00;103001.63;2615412;36;20058;-51
2022/04/17 02:47:51;;;;;;;8.75;5.80;;;;;;;3.97;100.00;102990.19;2615860;36;20185;-57
2022/04/17 02:50:22;;;;;;;8.15;5.20;;;;;;;4.02;100.00;102988.31;2615586;36;20097;-53
2022/04/17 02:52:50;;;;;;;8.07;5.78;;;;;;;4.04;100.00;102984.66;2614131;36;20030;-50
2022/04/17 02:55:18;;;;;;;7.35;5.45;;;;;;;4.13;100.00;102990.66;2615207;36;20081;-55
2022/04/17 02:57:54;;;;;;;11.30;6.40;;;;;;;4.03;100.00;102982.03;2614154;36;20137;-52
2022/04/17 03:00:23;;;;;;;7.32;5.88;;;;;;;3.97;100.00;102990.19;2613966;36;20165;-52
2022/04/17 03:05:41;;;;;;;7.40;5.65;;;;;;;3.90;100.00;102989.50;2615851;36;20035;-55
2022/04/17 03:08:11;;;;;;;8.77;5.57;;;;;;;3.88;100.00;102993.13;2614923;36;20030;-51
2022/04/17 03:10:41;;;;;;;10.02;5.97;;;;;;;3.88;100.00;102998.44;2614973;32;20602;-53
2022/04/17 03:13:10;;;;;;;8.05;5.60;;;;;;;3.84;100.00;102993.19;2615422;36;20090;-54
2022/04/17 03:15:40;;;;;;;;;;;;;;;3.86;100.00;102988.69;2614659;36;20154;-48
2022/04/17 03:18:13;;;;;;;8.45;6.15;;;;;;;3.78;100.00;102992.47;2615689;31;20455;-50
2022/04/17 03:20:42;;;;;;;9.07;6.20;;;;;;;3.70;100.00;102999.78;2614568;36;20621;-54
2022/04/17 03:23:10;;;;;;;9.20;5.77;;;;;;;3.65;100.00;102987.47;2615448;36;20388;-51
2022/04/17 03:25:39;;;;;;;9.45;6.22;;;;;;;3.62;100.00;102994.63;2615315;36;20190;-51
2022/04/17 03:28:08;;;;;;;9.90;6.43;;;;;;;3.51;100.00;102998.44;2614254;36;20045;-51
2022/04/17 03:30:36;;;;;;;9.27;6.57;;;;;;;3.46;100.00;102986.16;2614486;31;20036;-52
2022/04/17 03:33:04;;;;;;;8.85;5.95;;;;;;;3.41;100.00;102986.28;2614927;31;20522;-52
2022/04/17 03:35:35;;;;;;;9.70;6.18;;;;;;;3.37;100.00;102983.72;2616233;31;20090;-51
2022/04/17 03:38:03;;;;;;;11.65;6.13;;;;;;;3.32;100.00;102975.84;2615469;36;20055;-51
2022/04/17 03:40:32;;;;;;;10.32;6.82;;;;;;;3.25;100.00;102990.22;2615205;31;20022;-52
2022/04/17 03:43:00;;;;;;;10.45;6.80;;;;;;;3.20;100.00;102987.66;2615697;31;20598;-54
2022/04/17 03:45:29;;;;;;;11.18;7.13;;;;;;;3.20;100.00;102978.81;2615891;36;20043;-52
2022/04/17 03:47:57;;;;;;;10.40;6.70;;;;;;;3.22;100.00;102979.66;2615474;36;20042;-54
2022/04/17 03:50:26;;;;;;;10.95;7.10;;;;;;;3.19;100.00;102975.25;2614552;36;20154;-54
2022/04/17 03:52:57;;;;;;;9.43;6.38;;;;;;;3.19;100.00;102974.41;2614930;36;20034;-53
2022/04/17 03:55:25;;;;;;;8.90;6.45;;;;;;;3.19;100.00;102969.06;2615054;36;20171;-50
2022/04/17 03:57:53;;;;;;;11.93;7.03;;;;;;;3.11;100.00;102964.81;2615434;36;20114;-52
2022/04/17 04:00:25;;;;;;;10.93;7.22;;;;;;;3.07;100.00;102968.44;2613974;36;20034;-54
2022/04/17 04:02:54;;;;;;;9.85;6.75;;;;;;;3.04;100.00;102957.00;2615059;36;20026;-55
2022/04/17 04:05:22;;;;;;;9.93;7.17;;;;;;;3.01;100.00;102960.59;2614905;36;20045;-55
2022/04/17 04:07:51;;;;;;;10.70;7.25;;;;;;;3.00;100.00;102957.97;2615068;36;20401;-53
2022/04/17 04:10:21;;;;;;;9.50;6.90;;;;;;;2.94;100.00;102966.97;2615267;36;20046;-49
2022/04/17 04:12:50;;;;;;;11.27;7.00;;;;;;;2.90;100.00;102957.31;2614937;36;20038;-51
2022/04/17 04:15:18;;;;;;;12.40;6.80;;;;;;;2.83;100.00;102961.00;2614929;36;20079;-53
2022/04/17 04:17:47;;;;;;;9.90;7.10;;;;;;;2.74;100.00;102957.66;2614946;36;20042;-54
2022/04/17 04:20:15;;;;;;;10.85;7.68;;;;;;;2.71;100.00;102956.84;2614486;36;20038;-50
2022/04/17 04:22:43;;;;;;;9.90;7.18;;;;;;;2.66;100.00;102948.09;2613927;36;20170;-52
2022/04/17 04:25:11;;;;;;;11.57;7.72;;;;;;;2.65;100.00;102956.97;2615078;36;20650;-52
2022/04/17 04:30:23;;;;;;;13.07;7.72;;;;;;;2.68;100.00;102941.84;2614016;31;20022;-49
2022/04/17 04:32:56;;;;;;;10.77;7.05;;;;;;;2.73;100.00;102939.94;2615370;36;20078;-53
2022/04/17 04:35:26;;;;;;;10.85;7.90;;;;;;;2.67;100.00;102941.88;2615379;36;20038;-52
2022/04/17 04:37:54;;;;;;;12.30;7.45;;;;;;;2.64;100.00;102942.81;2614447;36;20030;-56
2022/04/17 04:40:23;;;;;;;13.20;7.80;;;;;;;2.63;100.00;102943.72;2616155;31;20687;-49
2022/04/17 04:42:59;;;;;;;12.10;7.72;;;;;;;2.64;100.00;102945.47;2615641;36;20089;-52
2022/04/17 04:48:08;;;;;;;10.88;7.60;;;;;;;2.67;100.00;102947.19;2615481;36;20054;-50
2022/04/17 04:50:36;;;;;;;10.60;7.78;;;;;;;2.62;100.00;102941.97;2614681;36;20595;-51
2022/04/17 04:53:05;;;;;;;10.43;7.72;;;;;;;2.67;100.00;102939.22;2614668;36;20564;-56
2022/04/17 04:55:33;;;;;;;13.47;7.83;;;;;;;2.65;100.00;102939.25;2614892;36;20125;-52
2022/04/17 04:58:07;;;;;;;11.02;8.02;;;;;;;2.65;100.00;102933.94;2615161;36;21053;-52
2022/04/17 05:00:35;;;;;;;10.98;7.97;;;;;;;2.75;100.00;102935.50;2613396;36;20085;-53
2022/04/17 05:03:05;;;;;;;11.32;7.82;;;;;;;2.80;100.00;102930.06;2615092;36;20122;-52
2022/04/17 05:05:33;;;;;;;11.13;7.60;;;;;;;2.78;100.00;102938.06;2615004;36;20042;-54
2022/04/17 05:08:01;;;;;;;11.15;7.97;;;;;;;2.78;100.00;102939.84;2614272;36;20057;-53
2022/04/17 05:10:29;;;;;;;12.50;7.97;;;;;;;2.74;100.00;102935.50;2614766;36;20125;-54
2022/04/17 05:12:57;;;;;;;11.32;7.47;;;;;;;2.74;100.00;102931.06;2614838;36;20133;-56
2022/04/17 05:15:30;;;;;;;13.73;8.48;;;;;;;2.82;100.00;102932.69;2614166;36;20029;-47
2022/04/17 05:17:58;;;;;;;13.05;8.20;;;;;;;2.93;100.00;102931.53;2614723;36;20034;-56
2022/04/17 05:20:26;;;;;;;11.30;7.70;;;;;;;2.98;100.00;102942.06;2614819;36;20132;-52
2022/04/17 05:22:56;;;;;;;10.03;7.30;;;;;;;3.04;100.00;102928.59;2614470;36;20435;-51
2022/04/17 05:25:25;;;;;;;16.60;8.65;;;;;;;3.12;100.00;102931.97;2615179;36;20299;-48
2022/04/17 05:27:53;;;;;;;10.97;7.83;;;;;;;3.20;100.00;102926.47;2615464;36;20110;-49
2022/04/17 05:30:21;;;;;;;11.20;8.02;;;;;;;3.23;100.00;102931.69;2614458;31;20141;-54
2022/04/17 05:32:52;;;;;;;13.23;7.95;;;;;;;3.36;100.00;102924.31;2615087;36;20022;-49
2022/04/17 05:35:20;;;;;;;9.30;7.10;;;;;;;3.58;100.00;102923.72;2615230;36;20667;-51
2022/04/17 05:37:49;;;;;;;10.70;7.53;;;;;;;3.70;100.00;102912.78;2614691;36;20045;-49
2022/04/17 05:40:17;;;;;;;11.10;7.20;;;;;;;4.01;100.00;102919.94;2615061;36;20037;-56
2022/04/17 05:42:45;;;;;;;11.90;7.30;;;;;;;4.13;100.00;102922.25;2614910;36;20506;-52
2022/04/17 05:45:13;;;;;;;12.63;7.15;;;;;;;4.29;100.00;102922.69;2614660;31;20034;-52
2022/04/17 05:47:42;;;;;;;10.98;7.22;;;;;;;4.42;100.00;102927.63;2616100;31;20117;-52
2022/04/17 05:50:13;;;;;;;9.02;6.32;;;;;;;4.68;100.00;102919.75;2614559;36;20068;-52
2022/04/17 05:52:41;;;;;;;10.38;7.15;;;;;;;4.80;100.00;102928.28;2615782;36;20145;-52
2022/04/17 05:55:11;;;;;;;10.40;6.88;;;;;;;4.82;100.00;102924.66;2615336;31;20137;-51
2022/04/17 05:57:40;;;;;;;10.88;6.93;;;;;;;5.01;100.00;102932.09;2616132;36;20030;-53
2022/04/17 06:00:09;;;;;;;9.52;6.78;;;;;;;5.64;100.00;102923.75;2613933;36;20046;-52
2022/04/17 06:02:38;;;;;;;9.52;6.40;;;;;;;5.59;100.00;102934.63;2615974;36;20046;-49
2022/04/17 06:05:08;;;;;;;10.20;6.50;;;;;;;5.94;100.00;102925.34;2614772;36;20050;-52
2022/04/17 06:07:39;;;;;;;;;;;;;;;6.05;100.00;102929.47;2616559;31;20526;-54
2022/04/17 06:10:09;;;;;;;9.35;6.35;;;;;;;6.09;100.00;102934.66;2614527;31;19954;-56
2022/04/17 06:12:38;;;;;;;9.38;6.47;;;;;;;6.24;100.00;102938.59;2615732;36;20096;-52
2022/04/17 06:15:08;;;;;;;8.75;6.55;;;;;;;6.21;100.00;102938.69;2613552;36;20089;-51
2022/04/17 06:17:40;;;;;;;8.75;6.15;;;;;;;6.26;100.00;102939.41;2615038;36;20258;-52
2022/04/17 06:20:10;;;;;;;8.00;6.25;;;;;;;6.36;100.00;102937.25;2614608;36;20044;-54
2022/04/17 06:22:45;;;;;;;10.90;7.07;;;;;;;6.57;100.00;102935.56;2615850;39;20381;-55
2022/04/17 06:25:14;;;;;;;10.75;6.03;;;;;;;6.79;100.00;102937.41;2614876;36;20042;-50
2022/04/17 06:27:42;;;;;;;;;;;;;;;6.98;100.00;102935.75;2615988;36;20544;-55
2022/04/17 06:30:13;;;;;;;8.40;6.07;;;;;;;7.01;100.00;102932.94;2613823;36;20059;-54
2022/04/17 06:32:42;;;;;;;9.18;5.90;;;;;;;7.48;100.00;102933.72;2615172;36;20041;-53
2022/04/17 06:35:12;;;;;;;9.25;5.60;;;;;;;7.47;100.00;102929.31;2614760;36;20586;-53
2022/04/17 06:37:54;;;;;;;9.95;5.43;;;;;;;7.47;100.00;102921.28;2615519;31;20114;-53
2022/04/17 06:40:24;;;;;;;8.52;5.18;;;;;;;7.57;100.00;102924.41;2614763;36;20029;-52
2022/04/17 06:42:54;;;;;;;6.97;4.78;;;;;;;7.75;100.00;102920.94;2615521;36;20063;-52
2022/04/17 06:45:23;;;;;;;8.30;5.60;;;;;;;7.95;100.00;102928.13;2614210;36;20029;-55
2022/04/17 06:47:52;;;;;;;7.80;4.65;;;;;;;8.06;100.00;102924.94;2615560;31;20502;-50
2022/04/17 06:50:22;;;;;;;7.18;4.70;;;;;;;8.13;97.63;102920.19;2615220;36;20129;-51
2022/04/17 06:52:53;;;;;;;8.07;5.50;;;;;;;8.22;100.00;102927.81;2614853;36;20046;-51
2022/04/17 06:55:21;;;;;;;6.75;4.53;;;;;;;8.31;100.00;102919.34;2614109;36;20162;-53
2022/04/17 06:57:51;;;;;;;8.85;4.65;;;;;;;8.53;95.34;102924.63;2615622;36;20133;-51
2022/04/17 07:00:22;;;;;;;8.40;4.35;;;;;;;8.63;94.82;102913.44;2614213;31;20039;-53
2022/04/17 07:02:50;;;;;;;6.47;4.50;;;;;;;8.59;93.30;102918.09;2614843;36;20415;-54
2022/04/17 07:05:18;;;;;;;5.70;4.32;;;;;;;8.75;91.57;102913.72;2614421;36;20069;-53
2022/04/17 07:07:47;;;;;;;5.25;4.47;;;;;;;8.88;96.22;102913.16;2615109;36;20038;-52
2022/04/17 07:10:17;;;;;;;5.70;4.20;;;;;;;9.16;100.00;102907.28;2614684;36;20065;-52
2022/04/17 07:12:46;;;;;;;6.75;4.50;;;;;;;9.22;94.85;102898.06;2613933;36;20394;-53
2022/04/17 07:15:15;;;;;;;6.65;4.28;;;;;;;9.22;84.74;102906.13;2611986;36;20385;-54
2022/04/17 07:17:44;;;;;;;6.70;4.00;;;;;;;9.26;79.63;102907.69;2613435;36;20555;-54
2022/04/17 07:20:12;;;;;;;6.40;4.40;;;;;;;9.31;80.76;102902.94;2614498;31;20637;-51
2022/04/17 07:22:42;;;;;;;5.57;3.72;;;;;;;9.53;79.71;102901.88;2614789;36;20022;-57
2022/04/17 07:25:14;;;;;;;6.43;4.00;;;;;;;9.44;85.28;102898.69;2613637;36;20038;-55
2022/04/17 07:27:47;;;;;;;8.13;4.10;;;;;;;9.96;84.11;102891.53;2613989;36;20022;-54
2022/04/17 07:30:17;;;;;;;5.97;4.18;;;;;;;9.92;81.26;102896.22;2614670;36;20058;-53
2022/04/17 07:32:46;;;;;;;8.43;4.22;;;;;;;10.07;79.43;102891.84;2613474;36;20122;-54
2022/04/17 07:35:17;;;;;;;4.88;4.20;;;;;;;10.04;77.20;102888.44;2613312;36;20686;-54
2022/04/17 07:37:49;;;;;;;5.82;4.18;;;;;;;10.40;77.74;102890.97;2614056;31;20034;-55
2022/04/17 07:40:21;;;;;;;4.75;3.67;;;;;;;10.54;85.87;102892.91;2614024;36;20053;-52
2022/04/17 07:42:53;;;;;;;7.13;3.55;;;;;;;10.72;77.90;102885.59;2615184;36;20022;-57
2022/04/17 07:45:22;;;;;;;4.45;3.80;;;;;;;10.69;75.97;102883.09;2614517;36;20029;-54
2022/04/17 07:47:51;;;;;;;;;;;;;;;10.73;74.13;102876.53;2614829;36;20023;-52
2022/04/17 07:50:23;;;;;;;5.70;3.75;;;;;;;10.87;73.91;102873.09;2614888;36;20093;-52
2022/04/17 07:52:51;;;;;;;5.25;4.00;;;;;;;10.92;72.54;102870.13;2614828;36;20046;-56
2022/04/17 07:55:20;;;;;;;4.82;3.53;;;;;;;10.90;80.00;102866.66;2614949;36;20651;-51
2022/04/17 07:57:56;;;;;;;5.57;3.50;;;;;;;11.06;71.79;102867.50;2614995;36;20023;-54
2022/04/17 08:00:27;;;;;;;6.68;3.50;;;;;;;11.29;78.17;102867.94;2614122;36;21812;-50
2022/04/17 08:03:06;;;;;;;5.32;3.47;;;;;;;11.49;73.49;102859.53;2614000;36;20177;-51
2022/04/17 08:05:37;;;;;;;6.28;3.65;;;;;;;11.72;70.45;102854.59;2614330;31;20642;-55
2022/04/17 08:08:06;;;;;;;6.68;3.70;;;;;;;11.84;70.55;102850.25;2615121;31;20583;-56
2022/04/17 08:10:34;;;;;;;8.77;3.50;;;;;;;12.03;71.00;102850.00;2614471;36;20672;-51
2022/04/17 08:13:05;;;;;;;6.13;4.10;;;;;;;11.85;67.18;102855.56;2613958;36;20167;-57
2022/04/17 08:15:34;;;;;;;5.68;3.67;;;;;;;11.99;66.22;102851.16;2614812;31;20118;-51
2022/04/17 08:18:02;;;;;;;6.47;3.70;;;;;;;12.20;66.61;102848.91;2614022;36;20149;-55
2022/04/17 08:20:30;;;;;;;7.03;3.88;;;;;;;12.16;65.03;102855.47;2613663;36;20045;-55
2022/04/17 08:22:59;;;;;;;5.60;3.80;;;;;;;12.16;63.41;102858.16;2615369;36;20496;-55
2022/04/17 08:25:27;;;;;;;4.55;3.70;;;;;;;12.31;64.75;102845.53;2614105;36;20062;-55
2022/04/17 08:27:57;;;;;;;5.32;3.45;;;;;;;12.72;65.74;102844.66;2613665;36;20105;-53
2022/04/17 08:30:30;;;;;;;4.68;3.58;;;;;;;13.07;65.03;102849.53;2611984;31;20035;-53
2022/04/17 08:32:59;;;;;;;7.43;4.10;;;;;;;12.91;65.27;102844.28;2612906;36;20639;-55
2022/04/17 08:35:28;;;;;;;5.32;3.60;;;;;;;13.04;66.65;102844.34;2613907;36;20180;-55
2022/04/17 08:37:57;;;;;;;5.85;3.78;;;;;;;13.09;63.69;102847.63;2613838;36;20200;-55
2022/04/17 08:40:27;;;;;;;5.53;3.67;;;;;;;13.32;63.89;102849.63;2609016;36;20065;-55
2022/04/17 08:42:56;;;;;;;5.05;3.60;;;;;;;13.24;61.98;102843.84;2613977;36;20129;-56
2022/04/17 08:45:28;;;;;;;5.65;4.15;;;;;;;13.36;59.59;102839.47;2614426;36;20141;-57
2022/04/17 08:47:57;;;;;;;5.80;3.40;;;;;;;13.57;61.18;102844.38;2613918;36;20118;-55
2022/04/17 08:50:25;;;;;;;7.47;3.60;;;;;;;13.47;62.48;102836.91;2614762;36;20041;-50
2022/04/17 08:52:55;;;;;;;4.95;3.72;;;;;;;13.64;59.59;102843.81;2614390;36;20034;-54
2022/04/17 08:55:24;;;;;;;5.05;3.63;;;;;;;13.75;58.76;102837.69;2613715;36;20034;-57
2022/04/17 08:57:52;;;;;;;5.00;3.42;;;;;;;13.68;56.86;102830.97;2614998;36;20578;-53
2022/04/17 09:00:21;;;;;;;4.85;3.53;;;;;;;13.86;63.86;102842.31;2613424;36;20062;-57
2022/04/17 09:02:52;;;;;;;6.50;3.67;;;;;;;14.14;56.31;102834.94;2615029;36;20045;-54
2022/04/17 09:05:22;;;;;;;6.28;3.15;;;;;;;14.29;54.67;102832.94;2613633;36;20041;-56
2022/04/17 09:07:53;;;;;;;5.35;3.10;;;;;;;14.15;55.76;102831.25;2614329;36;20129;-51
2022/04/17 09:10:29;;;;;;;4.25;3.15;;;;;;;14.40;51.79;102833.03;2613144;36;20034;-56
2022/04/17 09:12:59;;;;;;;5.00;3.10;;;;;;;14.22;50.00;102829.81;2612428;36;20031;-52
2022/04/17 09:15:28;;;;;;;4.15;3.08;;;;;;;14.17;53.54;102818.47;2613224;36;20030;-57
2022/04/17 09:17:59;;;;;;;5.10;3.35;;;;;;;14.52;52.21;102815.84;2614439;36;20161;-56
2022/04/17 09:20:30;;;;;;;4.80;2.97;;;;;;;14.24;51.93;102817.03;2614297;36;20058;-56
2022/04/17 09:23:00;;;;;;;4.32;2.72;;;;;;;14.50;50.98;102816.94;2614917;36;20030;-55
2022/04/17 09:25:29;;;;;;;5.45;3.13;;;;;;;14.23;50.60;102812.59;2613621;36;20129;-56
2022/04/17 09:27:58;;;;;;;;;;;;;;;14.56;53.48;102805.69;2615228;36;20046;-55
2022/04/17 09:30:28;;;;;;;3.92;2.80;;;;;;;14.66;50.57;102803.16;2613399;36;19958;-54
2022/04/17 09:32:59;;;;;;;5.03;3.20;;;;;;;14.71;49.66;102804.53;2614407;36;20045;-52
2022/04/17 09:35:29;;;;;;;5.32;3.22;;;;;;;14.74;49.17;102791.72;2614273;36;20658;-55
2022/04/17 09:37:59;;;;;;;5.28;3.22;;;;;;;14.79;50.21;102792.25;2613198;36;20162;-54
2022/04/17 09:40:28;;;;;;;4.20;2.78;;;;;;;14.81;49.21;102788.47;2613138;36;20034;-55
2022/04/17 09:43:14;;;;;;;6.18;3.13;;;;;;;15.13;49.33;102781.53;2614925;36;20062;-60
2022/04/17 09:45:59;;;;;;;7.05;3.38;;;;;;;15.08;49.18;102779.19;2614251;36;20042;-58
2022/04/17 09:48:32;;;;;;;4.63;3.22;;;;;;;15.29;48.03;102778.50;2614057;36;20035;-55
2022/04/17 09:51:01;;;;;;;4.40;3.25;;;;;;;15.16;49.97;102778.56;2614438;36;20298;-56
2022/04/17 09:53:33;;;;;;;5.13;2.95;;;;;;;15.69;51.49;102776.19;2614419;36;20598;-56
2022/04/17 09:56:10;;;;;;;5.03;3.00;;;;;;;15.87;46.47;102775.72;2614904;36;20136;-48
2022/04/17 09:58:39;;;;;;;6.35;2.97;;;;;;;15.86;51.00;102768.59;2614751;36;20065;-58
2022/04/17 10:01:09;;;;;;;4.95;3.00;;;;;;;15.81;46.87;102768.97;2613769;36;20037;-57
2022/04/17 10:03:41;;;;;;;4.22;2.90;;;;;;;15.83;46.95;102766.13;2613278;36;20034;-58
2022/04/17 10:06:10;;;;;;;3.72;2.58;;;;;;;15.82;46.19;102754.38;2611364;36;20953;-54
2022/04/17 10:08:42;;;;;;;5.05;2.90;;;;;;;16.17;46.53;102760.66;2613361;36;20038;-53
2022/04/17 10:11:10;;;;;;;3.45;2.88;;;;;;;16.15;43.38;102754.47;2613394;31;20042;-55
2022/04/17 10:13:39;;;;;;;5.95;2.70;;;;;;;16.30;43.03;102747.78;2614572;36;20114;-52
2022/04/17 10:16:10;;;;;;;4.43;2.55;;;;;;;16.23;42.63;102746.56;2613506;36;20123;-57
2022/04/17 10:18:42;;;;;;;3.58;2.53;;;;;;;16.34;42.72;102741.09;2615813;36;20512;-53
2022/04/17 10:21:13;;;;;;;5.03;2.90;;;;;;;16.21;41.77;102737.66;2615393;36;20045;-58
2022/04/17 10:23:45;;;;;;;3.75;2.95;;;;;;;16.48;42.88;102737.22;2615411;36;20411;-56
2022/04/17 10:26:17;;;;;;;5.78;2.80;;;;;;;16.54;42.42;102733.97;2614944;36;20105;-55
2022/04/17 10:28:48;;;;;;;4.95;2.70;;;;;;;16.71;41.28;102732.56;2614279;36;20171;-54
2022/04/17 10:31:19;;;;;;;3.05;2.60;;;;;;;16.80;42.41;102720.03;2613444;31;20154;-52
2022/04/17 10:34:26;;;;;;;4.65;2.80;;;;;;;16.77;39.99;102718.44;2614208;36;20042;-57
2022/04/17 10:37:23;;;;;;;5.45;3.25;;;;;;;16.86;39.93;102716.78;2613839;36;20403;-56
2022/04/17 10:39:57;;;;;;;4.00;2.83;;;;;;;17.00;41.19;102712.88;2613146;36;20134;-55
2022/04/17 10:42:35;;;;;;;5.70;3.10;;;;;;;16.68;39.79;102702.91;2607395;36;20061;-57
2022/04/17 10:45:04;;;;;;;3.85;2.72;;;;;;;16.74;41.93;102699.66;2614083;36;20186;-53
2022/04/17 10:47:33;;;;;;;4.78;3.40;;;;;;;17.00;40.42;102702.00;2614314;36;20034;-57
2022/04/17 10:50:11;;;;;;;3.50;2.95;;;;;;;17.11;40.92;102701.94;2614030;36;20145;-53
2022/04/17 10:52:41;;;;;;;5.25;3.13;;;;;;;17.10;39.71;102696.63;2613983;36;20031;-57
2022/04/17 10:55:11;;;;;;;6.72;3.35;;;;;;;17.09;40.35;102695.78;2614916;36;20527;-56
2022/04/17 10:57:47;;;;;;;4.75;3.35;;;;;;;17.36;41.29;102680.72;2615251;31;20038;-53
2022/04/17 11:00:28;;;;;;;4.68;3.03;;;;;;;17.35;40.85;102679.00;2615034;36;20159;-56
2022/04/17 11:03:00;;;;;;;3.30;2.83;;;;;;;17.42;40.66;102669.28;2615883;36;20125;-57
2022/04/17 11:08:24;;;;;;;5.20;2.92;;;;;;;17.67;39.85;102661.66;2614933;36;20057;-55
2022/04/17 11:10:54;;;;;;;4.78;2.92;;;;;;;17.96;41.89;102660.88;2614372;36;20041;-56
2022/04/17 11:13:23;;;;;;;6.97;3.35;;;;;;;17.81;43.08;102658.50;2616080;31;20578;-55
2022/04/17 11:15:56;;;;;;;4.07;3.00;;;;;;;17.52;39.46;102651.13;2614566;36;20303;-56
2022/04/17 11:18:26;;;;;;;4.75;3.10;;;;;;;17.95;39.85;102654.56;2614537;36;20138;-57
2022/04/17 11:20:58;;;;;;;7.03;2.80;;;;;;;18.14;37.09;102647.44;2613057;36;20129;-57
2022/04/17 11:24:02;;;;;;;4.65;3.13;;;;;;;17.77;38.39;102643.47;2613390;36;20042;-53
2022/04/17 11:27:00;;;;;;;4.35;2.72;;;;;;;17.92;38.32;102638.50;2614380;36;20170;-53
2022/04/17 11:29:36;;;;;;;4.13;3.05;;;;;;;18.17;38.44;102628.91;2614180;36;20158;-56
2022/04/17 11:32:26;;;;;;;6.90;2.92;;;;;;;18.36;39.11;102622.59;2613771;36;20050;-56
2022/04/17 11:34:55;;;;;;;4.82;2.97;;;;;;;18.46;40.44;102617.16;2614429;36;20443;-56
2022/04/17 11:37:27;;;;;;;3.33;2.83;;;;;;;18.53;40.89;102615.53;2613770;36;20030;-55
2022/04/17 11:40:00;;;;;;;5.05;2.90;;;;;;;18.35;38.22;102595.50;2613586;31;20581;-57
2022/04/17 11:42:31;;;;;;;5.10;3.25;;;;;;;18.74;38.83;102600.84;2613661;36;20037;-53
2022/04/17 11:45:05;;;;;;;3.67;2.90;;;;;;;18.85;40.37;102597.97;2614938;36;20046;-58
2022/04/17 11:47:40;;;;;;;6.70;3.33;;;;;;;18.56;38.63;102595.31;2616152;36;20046;-55
2022/04/17 11:50:11;;;;;;;5.20;3.40;;;;;;;18.45;39.52;102593.59;2615175;36;20055;-58
2022/04/17 11:52:42;;;;;;;4.93;3.40;;;;;;;18.45;37.08;102584.59;2613996;36;20034;-55
2022/04/17 11:55:27;;;;;;;4.28;3.20;;;;;;;18.63;40.34;102587.41;2615256;36;20038;-55